Terminal Aerodrome Forecast
Issued by NWS Portland, OR

Home | Current Version | Previous Version | Text Only | Print | Product List | Glossary On
Versions: 1 2 3 4 5 6 7 8 9 10 11 12 13 14 15 16 17 18 19 20 21 22 23 24 25 26 27 28 29 30 31 32 33 34 35 36 37
000
FTUS46 KPQR 210306 AAA
TAFAST
TAF AMD
KAST 210306Z 2103/2124 10010KT P6SM SKC
     FM211100 19005KT 5SM BR BKN007
     FM211300 18003KT 1/2SM FG OVC003
     FM211700 20005KT P6SM OVC007
     FM212000 22009KT P6SM OVC015=

USA.gov is the U.S. government's official web portal to all federal, state and local government web resources and services.